Time;durP1;ratioP1;P1;durP2;ratioP2;P2;SDS_P1;SDS_P2;PMS_P1;PMS_P2;Temp;Humidity;BMP_temperature;BMP_pressure;BME280_temperature;BME280_humidity;BME280_pressure;Samples;Min_cycle;Max_cycle;Signal;HPM_P1;HPM_P2
2022/03/01 00:00:41;;;;;;;20.35;8.57;;;;;;;;;;5053550;28;20274;-58
2022/03/01 00:03:08;;;;;;;18.75;8.18;;;;;;;;;;5058631;28;20021;-58
2022/03/01 00:05:33;;;;;;;20.27;8.95;;;;;;;;;;5061131;28;20133;-58
2022/03/01 00:07:59;;;;;;;22.63;10.00;;;;;;;;;;5057946;28;20055;-57
2022/03/01 00:10:24;;;;;;;20.77;9.00;;;;;;;;;;5057950;28;20524;-58
2022/03/01 00:12:50;;;;;;;21.38;9.02;;;;;;;;;;5060693;28;20399;-55
2022/03/01 00:15:15;;;;;;;22.77;9.05;;;;;;;;;;5058276;28;20738;-57
2022/03/01 00:17:41;;;;;;;19.75;8.45;;;;;;;;;;5062827;28;20119;-57
2022/03/01 00:20:07;;;;;;;20.80;8.80;;;;;;;;;;5057933;28;20041;-58
2022/03/01 00:22:33;;;;;;;23.70;9.07;;;;;;;;;;5066677;28;20043;-56
2022/03/01 00:24:59;;;;;;;20.88;9.30;;;;;;;;;;5065550;28;20021;-57
2022/03/01 00:27:25;;;;;;;23.42;9.88;;;;;;;;;;5057489;28;20024;-56
2022/03/01 00:29:50;;;;;;;24.48;10.23;;;;;;;;;;5062009;28;20043;-57
2022/03/01 00:32:16;;;;;;;24.80;9.70;;;;;;;;;;5055702;28;20141;-56
2022/03/01 00:34:41;;;;;;;23.63;9.57;;;;;;;;;;5059557;28;20546;-57
2022/03/01 00:37:07;;;;;;;22.83;9.35;;;;;;;;;;5063446;28;20040;-57
2022/03/01 00:39:32;;;;;;;24.65;9.57;;;;;;;;;;5054634;28;20503;-56
2022/03/01 00:41:58;;;;;;;22.40;9.30;;;;;;;;;;5054606;28;20100;-56
2022/03/01 00:44:23;;;;;;;21.85;9.38;;;;;;;;;;5062705;28;20538;-58
2022/03/01 00:46:48;;;;;;;24.70;9.70;;;;;;;;;;5062151;28;20020;-57
2022/03/01 00:49:14;;;;;;;21.55;8.82;;;;;;;;;;5056474;28;20059;-57
2022/03/01 00:51:40;;;;;;;26.25;9.85;;;;;;;;;;5062555;28;20032;-58
2022/03/01 00:54:05;;;;;;;24.70;8.95;;;;;;;;;;5057899;28;20047;-57
2022/03/01 00:56:31;;;;;;;23.92;9.65;;;;;;;;;;5064333;28;20033;-57
2022/03/01 00:58:58;;;;;;;23.80;10.23;;;;;;;;;;5056046;28;20025;-56
2022/03/01 01:01:24;;;;;;;21.75;8.88;;;;;;;;;;5058796;28;20048;-57
2022/03/01 01:03:49;;;;;;;23.40;9.75;;;;;;;;;;5062829;28;20168;-57
2022/03/01 01:06:14;;;;;;;24.55;9.52;;;;;;;;;;5058410;28;20025;-56
2022/03/01 01:08:40;;;;;;;21.80;8.65;;;;;;;;;;5057326;28;20065;-57
2022/03/01 01:11:06;;;;;;;23.58;8.55;;;;;;;;;;5065463;28;20029;-58
2022/03/01 01:13:31;;;;;;;21.73;8.98;;;;;;;;;;5062018;28;20028;-55
2022/03/01 01:15:57;;;;;;;22.20;9.02;;;;;;;;;;5064595;28;20276;-55
2022/03/01 01:18:23;;;;;;;22.00;9.30;;;;;;;;;;5065723;28;20029;-58
2022/03/01 01:20:49;;;;;;;20.73;9.13;;;;;;;;;;5058681;28;20020;-57
2022/03/01 01:23:14;;;;;;;21.60;9.70;;;;;;;;;;5060845;28;20028;-55
2022/03/01 01:25:40;;;;;;;21.40;8.90;;;;;;;;;;5055422;28;20029;-57
2022/03/01 01:28:05;;;;;;;25.00;10.10;;;;;;;;;;5053770;28;20176;-57
2022/03/01 01:30:33;;;;;;;23.38;9.65;;;;;;;;;;5063619;28;20033;-56
2022/03/01 01:32:59;;;;;;;21.05;9.63;;;;;;;;;;5059768;28;20021;-56
2022/03/01 01:35:27;;;;;;;23.45;9.35;;;;;;;;;;5059917;28;20546;-58
2022/03/01 01:37:54;;;;;;;23.60;9.70;;;;;;;;;;5053768;28;20021;-56
2022/03/01 01:40:28;;;;;;;23.05;8.95;;;;;;;;;;5054582;28;20031;-56
2022/03/01 01:42:55;;;;;;;21.65;9.13;;;;;;;;;;5055535;28;20028;-57
2022/03/01 01:45:21;;;;;;;24.55;9.90;;;;;;;;;;5056226;28;20099;-56
2022/03/01 01:47:48;;;;;;;20.38;9.52;;;;;;;;;;5054267;28;20059;-57
2022/03/01 01:50:15;;;;;;;20.52;9.27;;;;;;;;;;5055389;28;20412;-57
2022/03/01 01:52:44;;;;;;;22.80;9.30;;;;;;;;;;5061873;28;20021;-57
2022/03/01 01:55:09;;;;;;;23.52;10.07;;;;;;;;;;5060959;28;20120;-58
2022/03/01 01:57:35;;;;;;;24.55;9.40;;;;;;;;;;5059272;28;20389;-58
2022/03/01 02:00:01;;;;;;;20.92;8.90;;;;;;;;;;5056402;28;20029;-56
2022/03/01 02:02:26;;;;;;;24.25;9.57;;;;;;;;;;5058322;28;20036;-56
2022/03/01 02:04:51;;;;;;;23.13;9.70;;;;;;;;;;5064937;28;20140;-57
2022/03/01 02:07:17;;;;;;;20.75;9.13;;;;;;;;;;5061781;28;20054;-54
2022/03/01 02:09:43;;;;;;;24.15;8.90;;;;;;;;;;5058054;28;20029;-57
2022/03/01 02:12:09;;;;;;;22.00;9.45;;;;;;;;;;5060767;28;20133;-57
2022/03/01 02:14:37;;;;;;;24.50;8.60;;;;;;;;;;5062893;28;20032;-57
2022/03/01 02:17:05;;;;;;;23.35;9.02;;;;;;;;;;5062100;28;20020;-57
2022/03/01 02:19:31;;;;;;;23.17;9.60;;;;;;;;;;5066374;28;20447;-56
2022/03/01 02:21:58;;;;;;;24.90;9.30;;;;;;;;;;5067461;28;20056;-55
2022/03/01 02:24:26;;;;;;;21.77;9.55;;;;;;;;;;5064364;28;20032;-57
2022/03/01 02:26:57;;;;;;;21.92;8.65;;;;;;;;;;5059210;28;20029;-57
2022/03/01 02:29:22;;;;;;;22.77;8.43;;;;;;;;;;5067054;28;20024;-56
2022/03/01 02:31:49;;;;;;;23.10;8.40;;;;;;;;;;5063124;28;20029;-57
2022/03/01 02:34:15;;;;;;;20.17;8.75;;;;;;;;;;5066092;28;20072;-58
2022/03/01 02:36:41;;;;;;;21.80;8.85;;;;;;;;;;5067423;28;20504;-56
2022/03/01 02:39:06;;;;;;;25.55;9.75;;;;;;;;;;5067512;28;20036;-57
2022/03/01 02:41:36;;;;;;;28.90;11.50;;;;;;;;;;5059377;28;20032;-58
2022/03/01 02:44:02;;;;;;;27.10;11.75;;;;;;;;;;5064333;28;20063;-56
2022/03/01 02:46:27;;;;;;;29.00;11.77;;;;;;;;;;5067367;28;20048;-57
2022/03/01 02:48:53;;;;;;;35.78;11.43;;;;;;;;;;5059317;28;20546;-58
2022/03/01 02:51:18;;;;;;;29.92;11.07;;;;;;;;;;5057798;28;20028;-55
2022/03/01 02:53:44;;;;;;;31.02;11.13;;;;;;;;;;5064330;28;20029;-58
2022/03/01 02:56:09;;;;;;;25.40;10.77;;;;;;;;;;5061692;28;20021;-55
2022/03/01 02:58:34;;;;;;;23.88;10.45;;;;;;;;;;5063830;28;20442;-58
2022/03/01 03:01:00;;;;;;;23.27;9.80;;;;;;;;;;5055904;28;20039;-58
2022/03/01 03:03:26;;;;;;;24.50;9.48;;;;;;;;;;5062209;28;20103;-58
2022/03/01 03:05:51;;;;;;;20.23;9.10;;;;;;;;;;5060866;28;20500;-58
2022/03/01 03:08:16;;;;;;;22.02;9.65;;;;;;;;;;5066934;28;20052;-57
2022/03/01 03:10:42;;;;;;;22.58;9.82;;;;;;;;;;5067571;28;20035;-56
2022/03/01 03:13:08;;;;;;;20.88;9.73;;;;;;;;;;5064861;28;20035;-64
2022/03/01 03:15:33;;;;;;;27.17;9.75;;;;;;;;;;5067931;28;20036;-51
2022/03/01 03:17:59;;;;;;;24.27;10.43;;;;;;;;;;5067188;28;20036;-55
2022/03/01 03:20:24;;;;;;;25.20;11.23;;;;;;;;;;5065084;28;20054;-57
2022/03/01 03:22:50;;;;;;;21.60;10.18;;;;;;;;;;5064883;28;20044;-57
2022/03/01 03:25:15;;;;;;;23.00;10.27;;;;;;;;;;5060808;28;20033;-58
2022/03/01 03:27:41;;;;;;;20.35;9.02;;;;;;;;;;5058864;28;20024;-57
2022/03/01 03:30:07;;;;;;;23.00;9.82;;;;;;;;;;5063978;28;20040;-56
2022/03/01 03:32:33;;;;;;;20.85;9.57;;;;;;;;;;5065022;28;20027;-56
2022/03/01 03:34:59;;;;;;;22.13;9.57;;;;;;;;;;5058399;28;20025;-56
2022/03/01 03:37:25;;;;;;;20.08;8.85;;;;;;;;;;5061178;28;20424;-54
2022/03/01 03:39:50;;;;;;;22.15;9.48;;;;;;;;;;5061462;28;20127;-58
2022/03/01 03:42:16;;;;;;;22.92;9.82;;;;;;;;;;5063106;28;20039;-56
2022/03/01 03:44:42;;;;;;;26.33;10.45;;;;;;;;;;5060358;28;20554;-56
2022/03/01 03:47:09;;;;;;;23.27;9.43;;;;;;;;;;5061630;28;20108;-57
2022/03/01 03:49:35;;;;;;;24.50;9.93;;;;;;;;;;5061783;28;20036;-57
2022/03/01 03:52:02;;;;;;;24.98;9.50;;;;;;;;;;5059138;28;20029;-59
2022/03/01 03:54:28;;;;;;;24.58;10.43;;;;;;;;;;5062746;28;20086;-58
2022/03/01 03:56:53;;;;;;;20.42;10.00;;;;;;;;;;5064216;28;20024;-55
2022/03/01 03:59:18;;;;;;;23.33;10.80;;;;;;;;;;5062893;28;20070;-56
2022/03/01 04:01:44;;;;;;;26.60;9.68;;;;;;;;;;5062332;28;20075;-56
2022/03/01 04:04:09;;;;;;;25.95;9.48;;;;;;;;;;5062790;28;20031;-55
2022/03/01 04:06:36;;;;;;;25.02;10.00;;;;;;;;;;5062679;28;20471;-55
2022/03/01 04:09:03;;;;;;;20.15;8.73;;;;;;;;;;5064745;28;20138;-57
2022/03/01 04:11:29;;;;;;;20.42;8.75;;;;;;;;;;5060147;28;20047;-57
2022/03/01 04:13:54;;;;;;;23.08;9.70;;;;;;;;;;5066414;28;20110;-57
2022/03/01 04:16:20;;;;;;;23.67;9.10;;;;;;;;;;5061922;28;20032;-55
2022/03/01 04:18:45;;;;;;;22.38;8.50;;;;;;;;;;5059180;28;20047;-56
2022/03/01 04:21:11;;;;;;;21.80;8.60;;;;;;;;;;5064961;28;20028;-58
2022/03/01 04:23:37;;;;;;;23.55;9.57;;;;;;;;;;5063712;28;20082;-58
2022/03/01 04:26:04;;;;;;;20.30;7.90;;;;;;;;;;5056745;28;20095;-57
2022/03/01 04:28:29;;;;;;;18.77;7.88;;;;;;;;;;5066357;28;20078;-58
2022/03/01 04:30:54;;;;;;;29.63;8.65;;;;;;;;;;5064321;28;20384;-56
2022/03/01 04:33:20;;;;;;;24.67;9.50;;;;;;;;;;5060061;28;20549;-57
2022/03/01 04:35:46;;;;;;;22.88;8.70;;;;;;;;;;5063914;28;20036;-55
2022/03/01 04:38:12;;;;;;;23.67;9.38;;;;;;;;;;5063064;28;20056;-56
2022/03/01 04:40:38;;;;;;;21.80;8.88;;;;;;;;;;5057186;28;20064;-57
2022/03/01 04:43:04;;;;;;;21.58;8.93;;;;;;;;;;5061053;28;20024;-56
2022/03/01 04:45:30;;;;;;;21.80;8.95;;;;;;;;;;5064798;28;20056;-56
2022/03/01 04:47:56;;;;;;;23.55;8.90;;;;;;;;;;5061244;28;20222;-54
2022/03/01 04:50:22;;;;;;;28.60;9.90;;;;;;;;;;5059384;28;20290;-56
2022/03/01 04:52:48;;;;;;;27.15;10.50;;;;;;;;;;5061701;28;20421;-55
2022/03/01 04:55:14;;;;;;;24.05;10.88;;;;;;;;;;5059986;28;20040;-56
2022/03/01 04:57:39;;;;;;;24.35;10.38;;;;;;;;;;5055767;28;20115;-56
2022/03/01 05:00:10;;;;;;;21.35;9.48;;;;;;;;;;5065108;28;20029;-56
2022/03/01 05:02:41;;;;;;;26.30;8.95;;;;;;;;;;5066662;28;20085;-57
2022/03/01 05:05:10;;;;;;;19.38;8.45;;;;;;;;;;5066745;28;20127;-57
2022/03/01 05:07:37;;;;;;;26.45;11.02;;;;;;;;;;5063050;28;20539;-53
2022/03/01 05:10:03;;;;;;;18.70;8.65;;;;;;;;;;5060682;28;20044;-54
2022/03/01 05:12:28;;;;;;;21.90;9.18;;;;;;;;;;5064048;28;20158;-56
2022/03/01 05:14:54;;;;;;;20.88;9.88;;;;;;;;;;5058479;28;20036;-55
2022/03/01 05:17:19;;;;;;;20.17;8.43;;;;;;;;;;5059548;28;20025;-55
2022/03/01 05:19:44;;;;;;;20.08;8.63;;;;;;;;;;5060499;28;20032;-56
2022/03/01 05:22:10;;;;;;;23.05;9.02;;;;;;;;;;5058225;28;20021;-55
2022/03/01 05:24:35;;;;;;;20.20;9.32;;;;;;;;;;5060816;28;20496;-56
2022/03/01 05:27:01;;;;;;;22.67;8.38;;;;;;;;;;5056688;28;20025;-57
2022/03/01 05:29:26;;;;;;;23.00;8.40;;;;;;;;;;5054950;28;20425;-57
2022/03/01 05:31:52;;;;;;;21.45;8.43;;;;;;;;;;5059695;28;20028;-56
2022/03/01 05:34:18;;;;;;;22.13;7.72;;;;;;;;;;5059124;28;20135;-57
2022/03/01 05:36:43;;;;;;;21.63;8.20;;;;;;;;;;5065580;28;20040;-56
2022/03/01 05:39:09;;;;;;;24.67;9.80;;;;;;;;;;5066677;28;20029;-57
2022/03/01 05:41:35;;;;;;;28.50;12.73;;;;;;;;;;5068471;28;20039;-55
2022/03/01 05:44:00;;;;;;;26.67;9.70;;;;;;;;;;5068892;28;20025;-53
2022/03/01 05:46:25;;;;;;;29.33;9.85;;;;;;;;;;5063063;28;20032;-57
2022/03/01 05:48:51;;;;;;;20.13;8.77;;;;;;;;;;5062542;28;20032;-57
2022/03/01 05:51:18;;;;;;;32.63;11.30;;;;;;;;;;5063992;28;20029;-56
2022/03/01 05:53:44;;;;;;;50.10;16.67;;;;;;;;;;5066066;28;20436;-56
2022/03/01 05:56:09;;;;;;;25.35;9.20;;;;;;;;;;5064576;28;20042;-57
2022/03/01 05:58:35;;;;;;;26.15;9.50;;;;;;;;;;5066879;28;20059;-54
2022/03/01 06:01:00;;;;;;;21.98;9.43;;;;;;;;;;5068455;28;20067;-54
2022/03/01 06:03:25;;;;;;;21.98;8.55;;;;;;;;;;5067080;28;20028;-56
2022/03/01 06:05:51;;;;;;;29.75;10.05;;;;;;;;;;5068836;28;20032;-55
2022/03/01 06:08:16;;;;;;;20.08;8.43;;;;;;;;;;5062622;28;20108;-55
2022/03/01 06:10:42;;;;;;;22.83;10.05;;;;;;;;;;5066906;28;20028;-57
2022/03/01 06:13:07;;;;;;;23.23;8.30;;;;;;;;;;5064406;28;20025;-57
2022/03/01 06:15:32;;;;;;;23.35;9.32;;;;;;;;;;5069253;28;20039;-57
2022/03/01 06:17:58;;;;;;;27.77;9.85;;;;;;;;;;5056432;28;20083;-55
2022/03/01 06:20:23;;;;;;;22.67;8.77;;;;;;;;;;5067157;28;20029;-54
2022/03/01 06:22:49;;;;;;;21.48;8.75;;;;;;;;;;5067114;28;20036;-55
2022/03/01 06:25:15;;;;;;;22.20;8.43;;;;;;;;;;5063046;28;20037;-56
2022/03/01 06:27:40;;;;;;;26.27;8.55;;;;;;;;;;5059418;28;20286;-55
2022/03/01 06:30:07;;;;;;;19.65;8.65;;;;;;;;;;5061941;28;20162;-56
2022/03/01 06:32:32;;;;;;;21.20;8.82;;;;;;;;;;5064004;28;20033;-56
2022/03/01 06:34:58;;;;;;;18.65;8.02;;;;;;;;;;5061437;28;20085;-53
2022/03/01 06:37:24;;;;;;;19.63;7.85;;;;;;;;;;5063105;28;20032;-52
2022/03/01 06:39:50;;;;;;;46.08;15.85;;;;;;;;;;5065643;28;20562;-55
2022/03/01 06:42:17;;;;;;;41.28;15.82;;;;;;;;;;5064895;28;20025;-56
2022/03/01 06:44:42;;;;;;;36.28;13.50;;;;;;;;;;5058127;28;20057;-55
2022/03/01 06:47:08;;;;;;;49.45;19.17;;;;;;;;;;5059938;28;20079;-56
2022/03/01 06:49:34;;;;;;;51.03;20.05;;;;;;;;;;5062197;28;20407;-57
2022/03/01 06:52:01;;;;;;;57.78;21.27;;;;;;;;;;5066083;28;20024;-55
2022/03/01 06:54:27;;;;;;;45.63;18.60;;;;;;;;;;5068152;28;20029;-56
2022/03/01 06:56:52;;;;;;;55.63;20.65;;;;;;;;;;5060254;28;20091;-54
2022/03/01 06:59:18;;;;;;;46.72;16.50;;;;;;;;;;5061446;28;20036;-56
2022/03/01 07:01:43;;;;;;;47.63;16.02;;;;;;;;;;5051098;28;20557;-55
2022/03/01 07:04:09;;;;;;;42.17;16.27;;;;;;;;;;5057700;28;20029;-55
2022/03/01 07:06:34;;;;;;;44.53;18.90;;;;;;;;;;5061929;28;20091;-56
2022/03/01 07:09:00;;;;;;;39.00;12.65;;;;;;;;;;5051280;28;20024;-56
2022/03/01 07:11:25;;;;;;;36.55;12.65;;;;;;;;;;5064979;28;20039;-54
2022/03/01 07:13:51;;;;;;;38.53;15.43;;;;;;;;;;5057575;28;20043;-55
2022/03/01 07:16:17;;;;;;;38.05;14.77;;;;;;;;;;5061029;28;20119;-57
2022/03/01 07:18:43;;;;;;;39.88;15.73;;;;;;;;;;5051314;28;20025;-54
2022/03/01 07:21:09;;;;;;;40.28;14.35;;;;;;;;;;5059267;28;20488;-56
2022/03/01 07:23:34;;;;;;;40.30;14.80;;;;;;;;;;5060269;28;20024;-57
2022/03/01 07:26:01;;;;;;;41.75;16.33;;;;;;;;;;5062413;28;20028;-55
2022/03/01 07:28:27;;;;;;;43.47;16.58;;;;;;;;;;5059800;28;20107;-58
2022/03/01 07:30:54;;;;;;;47.78;16.30;;;;;;;;;;5059616;28;20024;-56
2022/03/01 07:33:19;;;;;;;38.65;16.48;;;;;;;;;;5060673;28;20024;-57
2022/03/01 07:35:46;;;;;;;36.00;14.65;;;;;;;;;;5056826;28;20120;-56
2022/03/01 07:38:11;;;;;;;42.85;15.00;;;;;;;;;;5062778;28;20437;-56
2022/03/01 07:40:37;;;;;;;45.55;18.05;;;;;;;;;;5056379;28;20055;-58
2022/03/01 07:43:03;;;;;;;46.00;18.50;;;;;;;;;;5059084;28;20031;-56
2022/03/01 07:45:28;;;;;;;45.22;18.58;;;;;;;;;;5060245;28;20024;-56
2022/03/01 07:47:53;;;;;;;46.00;17.83;;;;;;;;;;5059175;28;20033;-54
2022/03/01 07:50:20;;;;;;;45.10;19.27;;;;;;;;;;5054436;28;20161;-55
2022/03/01 07:52:47;;;;;;;52.33;20.15;;;;;;;;;;5060116;28;20149;-54
2022/03/01 07:55:13;;;;;;;42.72;18.48;;;;;;;;;;5060220;28;20031;-55
2022/03/01 07:57:38;;;;;;;42.40;17.67;;;;;;;;;;5058996;28;20593;-55
2022/03/01 08:00:05;;;;;;;50.42;19.27;;;;;;;;;;5058999;28;20056;-56
2022/03/01 08:02:31;;;;;;;35.45;13.75;;;;;;;;;;5056725;28;20025;-56
2022/03/01 08:04:57;;;;;;;45.00;11.90;;;;;;;;;;5056440;28;20025;-56
2022/03/01 08:07:24;;;;;;;23.00;10.77;;;;;;;;;;5057245;28;20153;-56
2022/03/01 08:09:49;;;;;;;28.98;11.80;;;;;;;;;;5060365;28;20451;-56
2022/03/01 08:12:15;;;;;;;43.45;15.88;;;;;;;;;;5059967;28;20033;-55
2022/03/01 08:14:40;;;;;;;36.38;13.50;;;;;;;;;;5055826;28;20024;-54
2022/03/01 08:17:06;;;;;;;37.20;13.70;;;;;;;;;;5056661;28;20044;-56
2022/03/01 08:19:31;;;;;;;32.17;12.77;;;;;;;;;;5048062;28;20040;-56
2022/03/01 08:21:56;;;;;;;31.25;12.52;;;;;;;;;;5055312;28;20028;-55
2022/03/01 08:24:22;;;;;;;35.50;13.80;;;;;;;;;;5051684;28;20024;-57
2022/03/01 08:26:49;;;;;;;34.95;13.50;;;;;;;;;;5049148;28;20056;-55
2022/03/01 08:29:15;;;;;;;30.67;12.43;;;;;;;;;;5055623;28;20037;-55
2022/03/01 08:31:41;;;;;;;33.95;12.55;;;;;;;;;;5051460;28;20078;-56
2022/03/01 08:34:07;;;;;;;31.40;12.60;;;;;;;;;;5061392;28;20250;-55
2022/03/01 08:36:33;;;;;;;30.58;12.25;;;;;;;;;;5057536;28;20275;-56
2022/03/01 08:38:59;;;;;;;31.25;12.35;;;;;;;;;;5059154;28;20016;-57
2022/03/01 08:41:24;;;;;;;33.15;12.73;;;;;;;;;;5058368;28;20024;-56
2022/03/01 08:43:50;;;;;;;31.65;12.70;;;;;;;;;;5059166;28;20029;-55
2022/03/01 08:46:17;;;;;;;28.45;11.18;;;;;;;;;;5058405;28;20021;-56
2022/03/01 08:48:44;;;;;;;31.05;12.18;;;;;;;;;;5052732;28;20028;-57
2022/03/01 08:51:11;;;;;;;30.45;13.15;;;;;;;;;;5053527;28;20033;-55
2022/03/01 08:53:37;;;;;;;29.48;11.70;;;;;;;;;;5053772;28;20407;-57
2022/03/01 08:56:03;;;;;;;26.10;11.27;;;;;;;;;;5046793;28;20029;-54
2022/03/01 08:58:29;;;;;;;26.92;10.50;;;;;;;;;;5055422;28;20407;-58
2022/03/01 09:00:54;;;;;;;26.20;11.20;;;;;;;;;;5050698;28;20025;-56
2022/03/01 09:03:19;;;;;;;25.90;11.10;;;;;;;;;;5038371;28;20417;-56
2022/03/01 09:05:45;;;;;;;28.10;10.80;;;;;;;;;;5052447;28;20033;-57
2022/03/01 09:08:12;;;;;;;22.38;10.25;;;;;;;;;;5059341;28;20072;-57
2022/03/01 09:10:41;;;;;;;28.92;10.88;;;;;;;;;;5053076;28;20036;-57
2022/03/01 09:13:06;;;;;;;24.48;10.30;;;;;;;;;;5059791;28;20539;-56
2022/03/01 09:15:32;;;;;;;26.23;9.90;;;;;;;;;;5061538;28;20068;-56
2022/03/01 09:18:03;;;;;;;22.13;9.88;;;;;;;;;;5058980;28;20514;-55
2022/03/01 09:20:29;;;;;;;21.98;9.77;;;;;;;;;;5061120;28;20054;-57
2022/03/01 09:22:56;;;;;;;27.67;10.20;;;;;;;;;;5057384;28;20025;-56
2022/03/01 09:25:21;;;;;;;25.15;10.25;;;;;;;;;;5059332;28;20032;-55
2022/03/01 09:27:47;;;;;;;19.73;9.65;;;;;;;;;;5062572;28;20545;-57
2022/03/01 09:30:13;;;;;;;23.40;9.50;;;;;;;;;;5060547;28;20047;-57
2022/03/01 09:32:40;;;;;;;23.75;9.63;;;;;;;;;;5059860;28;20080;-58
2022/03/01 09:35:06;;;;;;;24.88;10.27;;;;;;;;;;5061036;28;20032;-57
2022/03/01 09:37:32;;;;;;;17.48;8.73;;;;;;;;;;5060550;28;20028;-58
2022/03/01 09:40:03;;;;;;;19.65;8.65;;;;;;;;;;5059878;28;20079;-58
2022/03/01 09:42:29;;;;;;;17.48;8.80;;;;;;;;;;5054032;28;20401;-57
2022/03/01 09:44:55;;;;;;;16.13;8.52;;;;;;;;;;5057889;28;20033;-58
2022/03/01 09:47:21;;;;;;;23.60;9.35;;;;;;;;;;5057910;28;20024;-58
2022/03/01 09:49:47;;;;;;;17.65;8.13;;;;;;;;;;5057865;28;20032;-57
2022/03/01 09:52:14;;;;;;;15.80;7.60;;;;;;;;;;5056539;28;20033;-55
2022/03/01 09:54:40;;;;;;;18.80;8.73;;;;;;;;;;5056694;28;20526;-56
2022/03/01 09:57:06;;;;;;;16.65;8.10;;;;;;;;;;5053759;28;20033;-56
2022/03/01 09:59:31;;;;;;;19.33;8.38;;;;;;;;;;5059311;28;20024;-57
2022/03/01 10:01:57;;;;;;;15.38;7.72;;;;;;;;;;5054805;28;20162;-56
2022/03/01 10:04:24;;;;;;;17.08;8.02;;;;;;;;;;5058226;28;20052;-56
2022/03/01 10:06:50;;;;;;;16.30;7.45;;;;;;;;;;5063663;28;20078;-57
2022/03/01 10:09:18;;;;;;;14.82;7.38;;;;;;;;;;5060704;28;20056;-57
2022/03/01 10:11:44;;;;;;;16.60;7.55;;;;;;;;;;5057124;28;20118;-57
2022/03/01 10:14:10;;;;;;;15.48;7.68;;;;;;;;;;5052852;28;20589;-57
2022/03/01 10:16:41;;;;;;;18.08;7.57;;;;;;;;;;5053141;28;20043;-59
2022/03/01 10:19:18;;;;;;;16.60;8.20;;;;;;;;;;5055059;28;20036;-57
2022/03/01 10:21:59;;;;;;;17.52;7.53;;;;;;;;;;5058677;28;20586;-57
2022/03/01 10:24:25;;;;;;;19.58;8.88;;;;;;;;;;5057200;28;20028;-57
2022/03/01 10:26:59;;;;;;;17.35;7.82;;;;;;;;;;5061548;28;20074;-57
2022/03/01 10:29:29;;;;;;;12.77;6.90;;;;;;;;;;5063011;28;20028;-57
2022/03/01 10:32:09;;;;;;;;;;;;;;;;;;5061042;28;20090;-57
2022/03/01 10:34:35;;;;;;;;;;;;;;;;;;5065644;28;19912;-57
2022/03/01 10:37:00;;;;;;;12.88;6.88;;;;;;;;;;5059184;28;19920;-58
2022/03/01 10:39:31;;;;;;;16.52;8.13;;;;;;;;;;5059930;28;20475;-58
2022/03/01 10:41:57;;;;;;;16.35;8.73;;;;;;;;;;5058998;28;20377;-58
2022/03/01 10:44:27;;;;;;;15.45;8.00;;;;;;;;;;5059781;28;20043;-57
2022/03/01 10:46:59;;;;;;;14.38;7.43;;;;;;;;;;5061906;28;20511;-58
2022/03/01 10:49:31;;;;;;;13.60;7.30;;;;;;;;;;5057854;28;20039;-57
2022/03/01 10:52:07;;;;;;;13.85;7.82;;;;;;;;;;5057965;28;20070;-58
2022/03/01 10:54:35;;;;;;;16.58;8.30;;;;;;;;;;5058804;28;20028;-57
2022/03/01 10:57:04;;;;;;;16.27;7.78;;;;;;;;;;5050570;28;20145;-58
2022/03/01 10:59:32;;;;;;;15.15;8.23;;;;;;;;;;5060844;28;20032;-57
2022/03/01 11:01:58;;;;;;;11.65;7.43;;;;;;;;;;5058006;28;20029;-56
2022/03/01 11:04:25;;;;;;;12.88;7.13;;;;;;;;;;5055171;28;20027;-57
2022/03/01 11:06:53;;;;;;;14.68;7.97;;;;;;;;;;5057495;28;20025;-57
2022/03/01 11:09:21;;;;;;;12.13;7.22;;;;;;;;;;5060744;28;20108;-57
2022/03/01 11:11:48;;;;;;;16.65;8.48;;;;;;;;;;5054317;28;20037;-57
2022/03/01 11:14:18;;;;;;;13.68;7.82;;;;;;;;;;5057704;28;20021;-59
2022/03/01 11:17:08;;;;;;;13.25;7.60;;;;;;;;;;5059668;28;20028;-57
2022/03/01 11:19:59;;;;;;;12.07;7.68;;;;;;;;;;5051583;28;20039;-57
2022/03/01 11:22:49;;;;;;;12.45;7.28;;;;;;;;;;5054682;28;20456;-57
2022/03/01 11:25:18;;;;;;;;;;;;;;;;;;5058443;28;20092;-58
2022/03/01 11:27:48;;;;;;;14.73;6.78;;;;;;;;;;5055073;28;19920;-58
2022/03/01 11:30:16;;;;;;;14.02;8.02;;;;;;;;;;5059688;28;20040;-58
2022/03/01 11:32:44;;;;;;;14.15;7.93;;;;;;;;;;5058371;28;20028;-58
2022/03/01 11:35:29;;;;;;;12.82;7.82;;;;;;;;;;5057351;28;20046;-58
2022/03/01 11:38:14;;;;;;;13.25;7.28;;;;;;;;;;5056842;28;20017;-57
2022/03/01 11:40:46;;;;;;;13.60;7.57;;;;;;;;;;5056051;28;20033;-58
2022/03/01 11:43:13;;;;;;;12.10;7.47;;;;;;;;;;5054205;28;20027;-56
2022/03/01 11:45:44;;;;;;;13.32;7.55;;;;;;;;;;5055781;28;20067;-58
2022/03/01 11:48:19;;;;;;;12.77;7.88;;;;;;;;;;5052529;28;20511;-58
2022/03/01 11:51:09;;;;;;;11.40;7.45;;;;;;;;;;5060900;28;20116;-59
2022/03/01 11:53:37;;;;;;;13.48;7.55;;;;;;;;;;5056497;28;20202;-59
2022/03/01 11:56:05;;;;;;;12.13;7.60;;;;;;;;;;5058195;28;20033;-58
2022/03/01 11:58:37;;;;;;;15.20;8.77;;;;;;;;;;5054432;28;20059;-58
2022/03/01 12:01:07;;;;;;;12.88;7.78;;;;;;;;;;5056643;28;20486;-57
2022/03/01 12:03:36;;;;;;;16.85;9.07;;;;;;;;;;5050831;28;20071;-58
2022/03/01 12:06:04;;;;;;;13.35;8.45;;;;;;;;;;5061853;28;20028;-59
2022/03/01 12:08:29;;;;;;;14.80;9.40;;;;;;;;;;5053823;28;20040;-59
2022/03/01 12:11:09;;;;;;;12.73;8.20;;;;;;;;;;5053851;28;20112;-57
2022/03/01 12:13:37;;;;;;;12.90;8.93;;;;;;;;;;5057584;28;20086;-58
2022/03/01 12:16:03;;;;;;;15.05;8.68;;;;;;;;;;5052763;28;20044;-59
2022/03/01 12:18:33;;;;;;;12.88;7.90;;;;;;;;;;5050984;28;20032;-59
2022/03/01 12:21:09;;;;;;;;;;;;;;;;;;5050420;28;20032;-59
2022/03/01 12:23:37;;;;;;;17.42;10.90;;;;;;;;;;5049080;28;19921;-58
2022/03/01 12:26:05;;;;;;;27.33;12.00;;;;;;;;;;5049088;28;20040;-57
2022/03/01 12:28:37;;;;;;;16.80;8.93;;;;;;;;;;5047567;28;20413;-57
2022/03/01 12:31:18;;;;;;;13.77;9.15;;;;;;;;;;5050038;28;20510;-58
2022/03/01 12:33:49;;;;;;;13.73;8.48;;;;;;;;;;5059466;28;20083;-59
2022/03/01 12:36:23;;;;;;;15.13;9.40;;;;;;;;;;5053900;28;20430;-58
2022/03/01 12:39:08;;;;;;;14.73;8.82;;;;;;;;;;5054641;28;20102;-58
2022/03/01 12:41:35;;;;;;;13.77;8.82;;;;;;;;;;5057282;28;20543;-58
2022/03/01 12:44:04;;;;;;;16.70;10.10;;;;;;;;;;5051840;28;20051;-58
2022/03/01 12:46:30;;;;;;;14.70;8.30;;;;;;;;;;5058883;28;20024;-57
2022/03/01 12:48:57;;;;;;;17.92;9.18;;;;;;;;;;5056795;28;20036;-56
2022/03/01 12:51:24;;;;;;;19.15;9.60;;;;;;;;;;5054921;28;20025;-58
2022/03/01 12:54:00;;;;;;;17.23;9.18;;;;;;;;;;5059190;28;20044;-57
2022/03/01 12:56:28;;;;;;;14.77;9.70;;;;;;;;;;5059921;28;20031;-58
2022/03/01 12:59:00;;;;;;;16.55;9.15;;;;;;;;;;5058172;28;20115;-58
2022/03/01 13:01:25;;;;;;;14.43;9.00;;;;;;;;;;5049045;28;20159;-57
2022/03/01 13:03:51;;;;;;;17.38;9.40;;;;;;;;;;5051835;28;20029;-59
2022/03/01 13:06:19;;;;;;;14.93;8.93;;;;;;;;;;5055409;28;20040;-59
2022/03/01 13:08:48;;;;;;;15.77;10.00;;;;;;;;;;5053241;28;20068;-60
2022/03/01 13:11:15;;;;;;;15.82;9.38;;;;;;;;;;5060414;28;20024;-58
2022/03/01 13:13:42;;;;;;;16.05;9.80;;;;;;;;;;5060241;28;20503;-59
2022/03/01 13:16:08;;;;;;;15.38;9.75;;;;;;;;;;5052238;28;20033;-59
2022/03/01 13:18:33;;;;;;;19.13;10.00;;;;;;;;;;5053048;28;20041;-57
2022/03/01 13:20:59;;;;;;;14.85;8.90;;;;;;;;;;5049495;28;20056;-60
2022/03/01 13:23:30;;;;;;;15.07;9.70;;;;;;;;;;5057706;28;20499;-58
2022/03/01 13:25:57;;;;;;;15.70;10.27;;;;;;;;;;5061913;28;20127;-57
2022/03/01 13:28:39;;;;;;;18.15;10.77;;;;;;;;;;5057861;28;20054;-58
2022/03/01 13:31:06;;;;;;;19.33;10.73;;;;;;;;;;5052934;28;20620;-59
2022/03/01 13:33:33;;;;;;;16.95;10.18;;;;;;;;;;5057756;28;20087;-59
2022/03/01 13:36:10;;;;;;;15.77;9.85;;;;;;;;;;5057972;28;20278;-59
2022/03/01 13:38:36;;;;;;;16.20;9.95;;;;;;;;;;5050010;28;20036;-58
2022/03/01 13:41:01;;;;;;;20.02;10.73;;;;;;;;;;5050970;28;20033;-60
2022/03/01 13:43:27;;;;;;;18.50;11.25;;;;;;;;;;5058695;28;20050;-58
2022/03/01 13:45:59;;;;;;;16.90;10.27;;;;;;;;;;5057720;28;20025;-58
2022/03/01 13:48:26;;;;;;;19.17;11.00;;;;;;;;;;5054580;28;20447;-58
2022/03/01 13:51:01;;;;;;;19.15;10.90;;;;;;;;;;5061076;28;20093;-58
2022/03/01 13:53:27;;;;;;;17.70;10.25;;;;;;;;;;5052117;28;20036;-58
2022/03/01 13:55:54;;;;;;;17.95;10.85;;;;;;;;;;5060366;28;20029;-58
2022/03/01 13:58:22;;;;;;;20.08;11.85;;;;;;;;;;5058093;28;20033;-57
2022/03/01 14:00:50;;;;;;;17.10;10.77;;;;;;;;;;5061326;28;20059;-58
2022/03/01 14:03:23;;;;;;;20.95;13.05;;;;;;;;;;5061488;28;20078;-58
2022/03/01 14:05:56;;;;;;;22.65;11.75;;;;;;;;;;5056192;28;20029;-58
2022/03/01 14:08:23;;;;;;;17.08;10.25;;;;;;;;;;5065634;28;20483;-57
2022/03/01 14:10:48;;;;;;;18.90;11.82;;;;;;;;;;5063784;28;20031;-58
2022/03/01 14:13:16;;;;;;;19.77;11.25;;;;;;;;;;5060706;28;20034;-58
2022/03/01 14:15:50;;;;;;;21.88;11.18;;;;;;;;;;5052102;28;20037;-59
2022/03/01 14:18:18;;;;;;;16.98;10.38;;;;;;;;;;5064702;28;20507;-58
2022/03/01 14:20:47;;;;;;;20.33;11.35;;;;;;;;;;5063632;28;20275;-59
2022/03/01 14:23:14;;;;;;;18.10;10.63;;;;;;;;;;5065248;28;20021;-59
2022/03/01 14:25:40;;;;;;;19.25;10.93;;;;;;;;;;5054132;28;20032;-59